sensor_id;sensor_type;location;lat;lon;timestamp;P1;durP1;ratioP1;P2;durP2;ratioP2
19339;SDS011;9804;52.350;6.684;2023-07-13T00:00:12;7.95;;;1.67;;
19339;SDS011;9804;52.350;6.684;2023-07-13T00:02:41;10.32;;;1.80;;
19339;SDS011;9804;52.350;6.684;2023-07-13T00:05:07;6.53;;;1.98;;
19339;SDS011;9804;52.350;6.684;2023-07-13T00:07:33;5.30;;;1.50;;
19339;SDS011;9804;52.350;6.684;2023-07-13T00:09:59;5.93;;;1.50;;
19339;SDS011;9804;52.350;6.684;2023-07-13T00:12:26;9.20;;;1.70;;
19339;SDS011;9804;52.350;6.684;2023-07-13T00:14:52;11.05;;;2.13;;
19339;SDS011;9804;52.350;6.684;2023-07-13T00:17:17;7.95;;;1.70;;
19339;SDS011;9804;52.350;6.684;2023-07-13T00:19:43;5.15;;;1.60;;
19339;SDS011;9804;52.350;6.684;2023-07-13T00:22:08;7.00;;;1.95;;
19339;SDS011;9804;52.350;6.684;2023-07-13T00:24:34;11.77;;;2.25;;
19339;SDS011;9804;52.350;6.684;2023-07-13T00:27:01;5.47;;;1.65;;
19339;SDS011;9804;52.350;6.684;2023-07-13T00:29:26;12.43;;;2.13;;
19339;SDS011;9804;52.350;6.684;2023-07-13T00:31:52;5.95;;;1.70;;
19339;SDS011;9804;52.350;6.684;2023-07-13T00:34:17;7.97;;;2.30;;
19339;SDS011;9804;52.350;6.684;2023-07-13T00:36:43;11.32;;;2.45;;
19339;SDS011;9804;52.350;6.684;2023-07-13T00:39:08;8.93;;;2.13;;
19339;SDS011;9804;52.350;6.684;2023-07-13T00:41:34;9.90;;;2.00;;
19339;SDS011;9804;52.350;6.684;2023-07-13T00:44:00;6.05;;;1.90;;
19339;SDS011;9804;52.350;6.684;2023-07-13T00:46:30;11.93;;;1.90;;
19339;SDS011;9804;52.350;6.684;2023-07-13T00:49:04;9.05;;;2.25;;
19339;SDS011;9804;52.350;6.684;2023-07-13T00:51:37;7.65;;;1.98;;
19339;SDS011;9804;52.350;6.684;2023-07-13T00:54:09;8.32;;;1.90;;
19339;SDS011;9804;52.350;6.684;2023-07-13T00:56:38;14.05;;;2.40;;
19339;SDS011;9804;52.350;6.684;2023-07-13T00:59:05;10.10;;;2.40;;
19339;SDS011;9804;52.350;6.684;2023-07-13T01:01:33;7.28;;;1.90;;
19339;SDS011;9804;52.350;6.684;2023-07-13T01:03:58;8.38;;;2.65;;
19339;SDS011;9804;52.350;6.684;2023-07-13T01:06:24;15.00;;;2.35;;
19339;SDS011;9804;52.350;6.684;2023-07-13T01:08:50;13.38;;;2.42;;
19339;SDS011;9804;52.350;6.684;2023-07-13T01:11:19;10.73;;;1.83;;
19339;SDS011;9804;52.350;6.684;2023-07-13T01:13:46;11.93;;;2.78;;
19339;SDS011;9804;52.350;6.684;2023-07-13T01:16:19;9.32;;;2.35;;
19339;SDS011;9804;52.350;6.684;2023-07-13T01:18:49;18.23;;;3.38;;
19339;SDS011;9804;52.350;6.684;2023-07-13T01:21:14;7.95;;;2.25;;
19339;SDS011;9804;52.350;6.684;2023-07-13T01:23:41;15.10;;;2.55;;
19339;SDS011;9804;52.350;6.684;2023-07-13T01:26:06;12.63;;;2.78;;
19339;SDS011;9804;52.350;6.684;2023-07-13T01:28:32;11.35;;;2.60;;
19339;SDS011;9804;52.350;6.684;2023-07-13T01:31:02;8.82;;;2.58;;
19339;SDS011;9804;52.350;6.684;2023-07-13T01:33:27;11.55;;;3.03;;
19339;SDS011;9804;52.350;6.684;2023-07-13T01:35:53;12.57;;;2.92;;
19339;SDS011;9804;52.350;6.684;2023-07-13T01:38:22;8.27;;;3.03;;
19339;SDS011;9804;52.350;6.684;2023-07-13T01:40:49;11.43;;;2.88;;
19339;SDS011;9804;52.350;6.684;2023-07-13T01:43:16;10.93;;;2.45;;
19339;SDS011;9804;52.350;6.684;2023-07-13T01:45:42;10.32;;;3.08;;
19339;SDS011;9804;52.350;6.684;2023-07-13T01:48:09;13.73;;;2.85;;
19339;SDS011;9804;52.350;6.684;2023-07-13T01:50:35;11.85;;;2.72;;
19339;SDS011;9804;52.350;6.684;2023-07-13T01:53:01;11.50;;;2.97;;
19339;SDS011;9804;52.350;6.684;2023-07-13T01:55:27;12.50;;;4.00;;
19339;SDS011;9804;52.350;6.684;2023-07-13T01:57:53;9.23;;;2.78;;
19339;SDS011;9804;52.350;6.684;2023-07-13T02:00:18;9.05;;;2.42;;
19339;SDS011;9804;52.350;6.684;2023-07-13T02:02:44;9.73;;;2.78;;
19339;SDS011;9804;52.350;6.684;2023-07-13T02:05:10;8.88;;;2.70;;
19339;SDS011;9804;52.350;6.684;2023-07-13T02:07:36;10.00;;;2.60;;
19339;SDS011;9804;52.350;6.684;2023-07-13T02:10:02;8.98;;;3.08;;
19339;SDS011;9804;52.350;6.684;2023-07-13T02:12:27;11.45;;;3.08;;
19339;SDS011;9804;52.350;6.684;2023-07-13T02:14:53;15.95;;;3.00;;
19339;SDS011;9804;52.350;6.684;2023-07-13T02:17:18;12.40;;;3.05;;
19339;SDS011;9804;52.350;6.684;2023-07-13T02:19:44;11.98;;;3.10;;
19339;SDS011;9804;52.350;6.684;2023-07-13T02:22:09;10.95;;;3.00;;
19339;SDS011;9804;52.350;6.684;2023-07-13T02:24:34;11.90;;;3.25;;
19339;SDS011;9804;52.350;6.684;2023-07-13T02:27:00;11.73;;;3.00;;
19339;SDS011;9804;52.350;6.684;2023-07-13T02:29:25;10.18;;;2.88;;
19339;SDS011;9804;52.350;6.684;2023-07-13T02:31:51;12.98;;;3.40;;
19339;SDS011;9804;52.350;6.684;2023-07-13T02:34:16;8.85;;;3.28;;
19339;SDS011;9804;52.350;6.684;2023-07-13T02:36:42;9.45;;;2.78;;
19339;SDS011;9804;52.350;6.684;2023-07-13T02:39:07;10.15;;;3.75;;
19339;SDS011;9804;52.350;6.684;2023-07-13T02:41:33;11.40;;;3.40;;
19339;SDS011;9804;52.350;6.684;2023-07-13T02:43:59;10.20;;;2.70;;
19339;SDS011;9804;52.350;6.684;2023-07-13T02:46:35;7.40;;;2.67;;
19339;SDS011;9804;52.350;6.684;2023-07-13T02:49:02;8.48;;;2.63;;
19339;SDS011;9804;52.350;6.684;2023-07-13T02:51:27;10.00;;;2.85;;
19339;SDS011;9804;52.350;6.684;2023-07-13T02:53:53;7.35;;;2.55;;
19339;SDS011;9804;52.350;6.684;2023-07-13T02:56:21;11.13;;;2.80;;
19339;SDS011;9804;52.350;6.684;2023-07-13T02:58:48;10.82;;;2.60;;
19339;SDS011;9804;52.350;6.684;2023-07-13T03:01:14;6.45;;;2.58;;
19339;SDS011;9804;52.350;6.684;2023-07-13T03:03:43;10.35;;;2.50;;
19339;SDS011;9804;52.350;6.684;2023-07-13T03:06:08;10.65;;;2.92;;
19339;SDS011;9804;52.350;6.684;2023-07-13T03:08:34;6.97;;;2.60;;
19339;SDS011;9804;52.350;6.684;2023-07-13T03:11:09;9.15;;;2.70;;
19339;SDS011;9804;52.350;6.684;2023-07-13T03:13:36;8.25;;;2.78;;
19339;SDS011;9804;52.350;6.684;2023-07-13T03:16:03;10.95;;;2.50;;
19339;SDS011;9804;52.350;6.684;2023-07-13T03:18:29;11.10;;;2.42;;
19339;SDS011;9804;52.350;6.684;2023-07-13T03:20:55;10.93;;;2.75;;
19339;SDS011;9804;52.350;6.684;2023-07-13T03:23:20;10.13;;;2.83;;
19339;SDS011;9804;52.350;6.684;2023-07-13T03:25:47;7.43;;;2.30;;
19339;SDS011;9804;52.350;6.684;2023-07-13T03:28:13;8.68;;;2.45;;
19339;SDS011;9804;52.350;6.684;2023-07-13T03:30:39;10.13;;;2.78;;
19339;SDS011;9804;52.350;6.684;2023-07-13T03:33:04;8.23;;;2.47;;
19339;SDS011;9804;52.350;6.684;2023-07-13T03:35:30;7.88;;;2.80;;
19339;SDS011;9804;52.350;6.684;2023-07-13T03:37:57;9.30;;;2.50;;
19339;SDS011;9804;52.350;6.684;2023-07-13T03:40:24;8.20;;;2.78;;
19339;SDS011;9804;52.350;6.684;2023-07-13T03:42:50;8.90;;;2.58;;
19339;SDS011;9804;52.350;6.684;2023-07-13T03:45:15;10.05;;;2.80;;
19339;SDS011;9804;52.350;6.684;2023-07-13T03:47:41;6.65;;;2.85;;
19339;SDS011;9804;52.350;6.684;2023-07-13T03:50:06;9.85;;;2.95;;
19339;SDS011;9804;52.350;6.684;2023-07-13T03:52:32;6.07;;;2.45;;
19339;SDS011;9804;52.350;6.684;2023-07-13T03:54:57;9.10;;;2.53;;
19339;SDS011;9804;52.350;6.684;2023-07-13T03:57:23;8.60;;;3.08;;
19339;SDS011;9804;52.350;6.684;2023-07-13T03:59:48;10.27;;;2.80;;
19339;SDS011;9804;52.350;6.684;2023-07-13T04:02:14;7.78;;;3.05;;
19339;SDS011;9804;52.350;6.684;2023-07-13T04:04:39;8.30;;;2.95;;
19339;SDS011;9804;52.350;6.684;2023-07-13T04:07:07;9.18;;;3.40;;
19339;SDS011;9804;52.350;6.684;2023-07-13T04:09:33;8.80;;;2.70;;
19339;SDS011;9804;52.350;6.684;2023-07-13T04:11:59;10.20;;;3.10;;
19339;SDS011;9804;52.350;6.684;2023-07-13T04:14:25;9.80;;;3.13;;
19339;SDS011;9804;52.350;6.684;2023-07-13T04:16:50;8.88;;;3.00;;
19339;SDS011;9804;52.350;6.684;2023-07-13T04:19:16;11.60;;;3.15;;
19339;SDS011;9804;52.350;6.684;2023-07-13T04:21:42;13.38;;;3.05;;
19339;SDS011;9804;52.350;6.684;2023-07-13T04:24:07;11.20;;;3.60;;
19339;SDS011;9804;52.350;6.684;2023-07-13T04:26:33;10.93;;;3.35;;
19339;SDS011;9804;52.350;6.684;2023-07-13T04:29:01;9.43;;;2.75;;
19339;SDS011;9804;52.350;6.684;2023-07-13T04:31:29;12.32;;;3.78;;
19339;SDS011;9804;52.350;6.684;2023-07-13T04:33:54;14.15;;;3.42;;
19339;SDS011;9804;52.350;6.684;2023-07-13T04:36:19;17.63;;;4.18;;
19339;SDS011;9804;52.350;6.684;2023-07-13T04:38:45;12.02;;;3.67;;
19339;SDS011;9804;52.350;6.684;2023-07-13T04:41:11;13.57;;;4.13;;
19339;SDS011;9804;52.350;6.684;2023-07-13T04:43:37;10.82;;;3.78;;
19339;SDS011;9804;52.350;6.684;2023-07-13T04:46:07;13.40;;;3.90;;
19339;SDS011;9804;52.350;6.684;2023-07-13T04:48:34;11.63;;;3.88;;
19339;SDS011;9804;52.350;6.684;2023-07-13T04:51:00;10.68;;;3.80;;
19339;SDS011;9804;52.350;6.684;2023-07-13T04:53:27;14.18;;;3.92;;
19339;SDS011;9804;52.350;6.684;2023-07-13T04:55:52;11.45;;;4.20;;
19339;SDS011;9804;52.350;6.684;2023-07-13T04:58:18;14.02;;;3.58;;
19339;SDS011;9804;52.350;6.684;2023-07-13T05:00:44;14.32;;;4.03;;
19339;SDS011;9804;52.350;6.684;2023-07-13T05:03:09;11.43;;;3.88;;
19339;SDS011;9804;52.350;6.684;2023-07-13T05:05:35;10.35;;;3.67;;
19339;SDS011;9804;52.350;6.684;2023-07-13T05:08:00;15.25;;;3.67;;
19339;SDS011;9804;52.350;6.684;2023-07-13T05:10:26;11.13;;;4.18;;
19339;SDS011;9804;52.350;6.684;2023-07-13T05:12:51;16.10;;;4.30;;
19339;SDS011;9804;52.350;6.684;2023-07-13T05:15:16;14.52;;;4.32;;
19339;SDS011;9804;52.350;6.684;2023-07-13T05:17:46;12.77;;;4.40;;
19339;SDS011;9804;52.350;6.684;2023-07-13T05:20:12;14.45;;;3.80;;
19339;SDS011;9804;52.350;6.684;2023-07-13T05:22:37;17.15;;;4.78;;
19339;SDS011;9804;52.350;6.684;2023-07-13T05:25:06;13.50;;;4.20;;
19339;SDS011;9804;52.350;6.684;2023-07-13T05:27:33;12.85;;;4.13;;
19339;SDS011;9804;52.350;6.684;2023-07-13T05:29:59;15.73;;;4.38;;
19339;SDS011;9804;52.350;6.684;2023-07-13T05:32:25;9.02;;;3.83;;
19339;SDS011;9804;52.350;6.684;2023-07-13T05:34:51;11.20;;;4.07;;
19339;SDS011;9804;52.350;6.684;2023-07-13T05:37:16;11.20;;;3.80;;
19339;SDS011;9804;52.350;6.684;2023-07-13T05:39:41;17.15;;;4.57;;
19339;SDS011;9804;52.350;6.684;2023-07-13T05:42:07;12.60;;;4.00;;
19339;SDS011;9804;52.350;6.684;2023-07-13T05:44:32;15.30;;;4.82;;
19339;SDS011;9804;52.350;6.684;2023-07-13T05:46:58;10.93;;;4.75;;
19339;SDS011;9804;52.350;6.684;2023-07-13T05:49:24;12.52;;;4.20;;
19339;SDS011;9804;52.350;6.684;2023-07-13T05:51:49;13.55;;;4.35;;
19339;SDS011;9804;52.350;6.684;2023-07-13T05:54:15;12.15;;;4.53;;
19339;SDS011;9804;52.350;6.684;2023-07-13T05:56:40;17.67;;;4.80;;
19339;SDS011;9804;52.350;6.684;2023-07-13T05:59:06;13.00;;;4.95;;
19339;SDS011;9804;52.350;6.684;2023-07-13T06:01:31;12.40;;;4.50;;
19339;SDS011;9804;52.350;6.684;2023-07-13T06:03:57;16.77;;;4.90;;
19339;SDS011;9804;52.350;6.684;2023-07-13T06:06:22;15.38;;;4.93;;
19339;SDS011;9804;52.350;6.684;2023-07-13T06:08:48;20.55;;;5.28;;
19339;SDS011;9804;52.350;6.684;2023-07-13T06:13:40;18.13;;;5.25;;
19339;SDS011;9804;52.350;6.684;2023-07-13T06:16:06;19.30;;;5.25;;
19339;SDS011;9804;52.350;6.684;2023-07-13T06:18:33;16.65;;;5.28;;
19339;SDS011;9804;52.350;6.684;2023-07-13T06:20:59;15.32;;;4.90;;
19339;SDS011;9804;52.350;6.684;2023-07-13T06:23:24;13.77;;;5.38;;
19339;SDS011;9804;52.350;6.684;2023-07-13T06:25:50;17.90;;;5.13;;
19339;SDS011;9804;52.350;6.684;2023-07-13T06:28:16;20.83;;;5.60;;
19339;SDS011;9804;52.350;6.684;2023-07-13T06:30:41;17.95;;;5.22;;
19339;SDS011;9804;52.350;6.684;2023-07-13T06:33:07;17.83;;;5.32;;
19339;SDS011;9804;52.350;6.684;2023-07-13T06:35:35;15.05;;;5.05;;
19339;SDS011;9804;52.350;6.684;2023-07-13T06:38:01;18.55;;;5.55;;
19339;SDS011;9804;52.350;6.684;2023-07-13T06:40:27;16.02;;;5.20;;
19339;SDS011;9804;52.350;6.684;2023-07-13T06:42:54;20.85;;;5.93;;
19339;SDS011;9804;52.350;6.684;2023-07-13T06:45:19;18.13;;;5.90;;
19339;SDS011;9804;52.350;6.684;2023-07-13T06:47:44;13.50;;;5.18;;
19339;SDS011;9804;52.350;6.684;2023-07-13T06:50:10;19.98;;;7.47;;
19339;SDS011;9804;52.350;6.684;2023-07-13T06:52:35;18.52;;;6.00;;
19339;SDS011;9804;52.350;6.684;2023-07-13T06:55:01;18.42;;;7.10;;
19339;SDS011;9804;52.350;6.684;2023-07-13T06:57:26;17.35;;;6.20;;
19339;SDS011;9804;52.350;6.684;2023-07-13T06:59:52;20.98;;;6.43;;
19339;SDS011;9804;52.350;6.684;2023-07-13T07:02:18;16.40;;;7.53;;
19339;SDS011;9804;52.350;6.684;2023-07-13T07:04:43;19.55;;;7.38;;
19339;SDS011;9804;52.350;6.684;2023-07-13T07:07:08;21.70;;;7.18;;
19339;SDS011;9804;52.350;6.684;2023-07-13T07:09:34;22.67;;;7.53;;
19339;SDS011;9804;52.350;6.684;2023-07-13T07:11:59;22.00;;;7.68;;
19339;SDS011;9804;52.350;6.684;2023-07-13T07:14:24;18.63;;;7.85;;
19339;SDS011;9804;52.350;6.684;2023-07-13T07:16:50;16.38;;;7.30;;
19339;SDS011;9804;52.350;6.684;2023-07-13T07:19:16;19.15;;;7.63;;
19339;SDS011;9804;52.350;6.684;2023-07-13T07:21:41;15.63;;;7.07;;
19339;SDS011;9804;52.350;6.684;2023-07-13T07:24:07;20.23;;;7.10;;
19339;SDS011;9804;52.350;6.684;2023-07-13T07:26:33;21.65;;;7.88;;
19339;SDS011;9804;52.350;6.684;2023-07-13T07:28:58;16.00;;;7.55;;
19339;SDS011;9804;52.350;6.684;2023-07-13T07:31:24;17.73;;;7.45;;
19339;SDS011;9804;52.350;6.684;2023-07-13T07:33:49;15.88;;;6.50;;
19339;SDS011;9804;52.350;6.684;2023-07-13T07:36:15;16.50;;;7.20;;
19339;SDS011;9804;52.350;6.684;2023-07-13T07:38:41;14.25;;;7.35;;
19339;SDS011;9804;52.350;6.684;2023-07-13T07:41:07;13.98;;;7.53;;
19339;SDS011;9804;52.350;6.684;2023-07-13T07:43:32;18.80;;;7.88;;
19339;SDS011;9804;52.350;6.684;2023-07-13T07:45:58;18.33;;;8.45;;
19339;SDS011;9804;52.350;6.684;2023-07-13T07:48:23;19.75;;;7.88;;
19339;SDS011;9804;52.350;6.684;2023-07-13T07:50:49;18.42;;;8.25;;
19339;SDS011;9804;52.350;6.684;2023-07-13T07:53:14;17.70;;;7.85;;
19339;SDS011;9804;52.350;6.684;2023-07-13T07:55:40;21.83;;;9.32;;
19339;SDS011;9804;52.350;6.684;2023-07-13T07:58:06;16.52;;;8.63;;
19339;SDS011;9804;52.350;6.684;2023-07-13T08:00:31;19.92;;;8.57;;
19339;SDS011;9804;52.350;6.684;2023-07-13T08:02:58;22.48;;;8.43;;
19339;SDS011;9804;52.350;6.684;2023-07-13T08:05:24;17.85;;;9.13;;
19339;SDS011;9804;52.350;6.684;2023-07-13T08:07:49;17.15;;;8.80;;
19339;SDS011;9804;52.350;6.684;2023-07-13T08:10:15;18.55;;;9.00;;
19339;SDS011;9804;52.350;6.684;2023-07-13T08:12:41;20.92;;;8.00;;
19339;SDS011;9804;52.350;6.684;2023-07-13T08:15:08;16.40;;;8.07;;
19339;SDS011;9804;52.350;6.684;2023-07-13T08:17:36;23.00;;;8.55;;
19339;SDS011;9804;52.350;6.684;2023-07-13T08:20:02;12.13;;;7.07;;
19339;SDS011;9804;52.350;6.684;2023-07-13T08:22:28;18.05;;;8.63;;
19339;SDS011;9804;52.350;6.684;2023-07-13T08:24:54;16.35;;;8.07;;
19339;SDS011;9804;52.350;6.684;2023-07-13T08:27:23;15.38;;;7.18;;
19339;SDS011;9804;52.350;6.684;2023-07-13T08:29:49;17.92;;;8.02;;
19339;SDS011;9804;52.350;6.684;2023-07-13T08:32:15;19.42;;;8.07;;
19339;SDS011;9804;52.350;6.684;2023-07-13T08:34:43;15.18;;;8.07;;
19339;SDS011;9804;52.350;6.684;2023-07-13T08:37:09;18.88;;;8.65;;
19339;SDS011;9804;52.350;6.684;2023-07-13T08:39:35;20.92;;;8.77;;
19339;SDS011;9804;52.350;6.684;2023-07-13T08:42:01;20.02;;;8.20;;
19339;SDS011;9804;52.350;6.684;2023-07-13T08:44:46;18.48;;;8.68;;
19339;SDS011;9804;52.350;6.684;2023-07-13T08:47:44;20.80;;;8.15;;
19339;SDS011;9804;52.350;6.684;2023-07-13T08:50:19;10.82;;;6.75;;
19339;SDS011;9804;52.350;6.684;2023-07-13T08:52:51;16.65;;;7.32;;
19339;SDS011;9804;52.350;6.684;2023-07-13T08:55:18;13.93;;;7.93;;
19339;SDS011;9804;52.350;6.684;2023-07-13T08:57:50;14.18;;;8.15;;
19339;SDS011;9804;52.350;6.684;2023-07-13T09:00:21;16.77;;;7.82;;
19339;SDS011;9804;52.350;6.684;2023-07-13T09:02:57;16.63;;;8.27;;
19339;SDS011;9804;52.350;6.684;2023-07-13T09:05:31;17.17;;;7.75;;
19339;SDS011;9804;52.350;6.684;2023-07-13T09:10:58;16.27;;;7.60;;
19339;SDS011;9804;52.350;6.684;2023-07-13T09:16:51;16.02;;;8.60;;
19339;SDS011;9804;52.350;6.684;2023-07-13T09:19:20;15.48;;;8.15;;
19339;SDS011;9804;52.350;6.684;2023-07-13T09:21:51;15.23;;;7.20;;
19339;SDS011;9804;52.350;6.684;2023-07-13T09:27:17;12.95;;;6.07;;
19339;SDS011;9804;52.350;6.684;2023-07-13T09:29:58;15.00;;;7.38;;
19339;SDS011;9804;52.350;6.684;2023-07-13T09:32:43;16.85;;;8.30;;
19339;SDS011;9804;52.350;6.684;2023-07-13T09:35:20;14.43;;;7.97;;
19339;SDS011;9804;52.350;6.684;2023-07-13T09:38:14;18.17;;;8.25;;
19339;SDS011;9804;52.350;6.684;2023-07-13T09:43:17;17.00;;;9.00;;
19339;SDS011;9804;52.350;6.684;2023-07-13T09:45:45;18.38;;;8.98;;
19339;SDS011;9804;52.350;6.684;2023-07-13T09:48:13;19.65;;;9.38;;
19339;SDS011;9804;52.350;6.684;2023-07-13T09:50:40;18.30;;;9.82;;
19339;SDS011;9804;52.350;6.684;2023-07-13T09:53:13;14.95;;;8.63;;
19339;SDS011;9804;52.350;6.684;2023-07-13T09:55:45;17.58;;;8.43;;
19339;SDS011;9804;52.350;6.684;2023-07-13T10:00:37;16.42;;;8.07;;
19339;SDS011;9804;52.350;6.684;2023-07-13T10:03:16;16.52;;;8.40;;
19339;SDS011;9804;52.350;6.684;2023-07-13T10:05:44;15.07;;;8.00;;
19339;SDS011;9804;52.350;6.684;2023-07-13T10:08:25;13.82;;;8.18;;
19339;SDS011;9804;52.350;6.684;2023-07-13T10:11:13;15.20;;;8.25;;
19339;SDS011;9804;52.350;6.684;2023-07-13T10:13:48;20.98;;;8.02;;
19339;SDS011;9804;52.350;6.684;2023-07-13T10:16:19;17.58;;;8.18;;
19339;SDS011;9804;52.350;6.684;2023-07-13T10:18:46;18.13;;;8.63;;
19339;SDS011;9804;52.350;6.684;2023-07-13T10:21:20;16.00;;;8.98;;
19339;SDS011;9804;52.350;6.684;2023-07-13T10:23:48;17.02;;;8.75;;
19339;SDS011;9804;52.350;6.684;2023-07-13T10:26:23;17.75;;;8.25;;
19339;SDS011;9804;52.350;6.684;2023-07-13T10:28:52;16.85;;;8.35;;
19339;SDS011;9804;52.350;6.684;2023-07-13T10:31:21;14.52;;;7.35;;
19339;SDS011;9804;52.350;6.684;2023-07-13T10:33:46;16.08;;;8.52;;
19339;SDS011;9804;52.350;6.684;2023-07-13T10:36:15;12.25;;;7.20;;
19339;SDS011;9804;52.350;6.684;2023-07-13T10:38:48;16.20;;;6.78;;
19339;SDS011;9804;52.350;6.684;2023-07-13T10:41:20;13.13;;;7.75;;
19339;SDS011;9804;52.350;6.684;2023-07-13T10:43:49;16.65;;;8.00;;
19339;SDS011;9804;52.350;6.684;2023-07-13T10:46:17;24.90;;;9.13;;
19339;SDS011;9804;52.350;6.684;2023-07-13T10:48:47;14.98;;;8.73;;
19339;SDS011;9804;52.350;6.684;2023-07-13T10:51:17;14.50;;;9.10;;
19339;SDS011;9804;52.350;6.684;2023-07-13T10:53:46;18.63;;;9.32;;
19339;SDS011;9804;52.350;6.684;2023-07-13T10:56:21;15.55;;;10.30;;
19339;SDS011;9804;52.350;6.684;2023-07-13T10:59:04;20.75;;;10.60;;
19339;SDS011;9804;52.350;6.684;2023-07-13T11:01:45;15.95;;;9.98;;
19339;SDS011;9804;52.350;6.684;2023-07-13T11:04:18;18.75;;;9.25;;
19339;SDS011;9804;52.350;6.684;2023-07-13T11:06:46;15.18;;;8.63;;
19339;SDS011;9804;52.350;6.684;2023-07-13T11:15:05;10.13;;;5.90;;
19339;SDS011;9804;52.350;6.684;2023-07-13T11:17:37;10.05;;;5.03;;
19339;SDS011;9804;52.350;6.684;2023-07-13T11:22:46;12.18;;;4.80;;
19339;SDS011;9804;52.350;6.684;2023-07-13T11:27:45;11.27;;;4.90;;
19339;SDS011;9804;52.350;6.684;2023-07-13T11:30:23;11.27;;;6.68;;
19339;SDS011;9804;52.350;6.684;2023-07-13T11:33:10;12.10;;;6.43;;
19339;SDS011;9804;52.350;6.684;2023-07-13T11:35:53;10.18;;;5.85;;
19339;SDS011;9804;52.350;6.684;2023-07-13T11:38:41;9.65;;;4.93;;
19339;SDS011;9804;52.350;6.684;2023-07-13T11:43:42;8.07;;;3.85;;
19339;SDS011;9804;52.350;6.684;2023-07-13T11:46:24;12.32;;;5.00;;
19339;SDS011;9804;52.350;6.684;2023-07-13T11:48:52;11.85;;;5.15;;
19339;SDS011;9804;52.350;6.684;2023-07-13T11:51:22;6.85;;;4.55;;
19339;SDS011;9804;52.350;6.684;2023-07-13T11:53:52;5.32;;;3.15;;
19339;SDS011;9804;52.350;6.684;2023-07-13T11:56:19;8.77;;;3.20;;
19339;SDS011;9804;52.350;6.684;2023-07-13T11:58:47;3.80;;;2.38;;
19339;SDS011;9804;52.350;6.684;2023-07-13T12:01:24;5.82;;;2.17;;
19339;SDS011;9804;52.350;6.684;2023-07-13T12:03:51;3.70;;;1.95;;
19339;SDS011;9804;52.350;6.684;2023-07-13T12:06:26;4.57;;;2.10;;
19339;SDS011;9804;52.350;6.684;2023-07-13T12:08:59;4.45;;;2.17;;
19339;SDS011;9804;52.350;6.684;2023-07-13T12:11:28;4.10;;;2.20;;
19339;SDS011;9804;52.350;6.684;2023-07-13T12:13:54;5.82;;;2.30;;
19339;SDS011;9804;52.350;6.684;2023-07-13T12:18:58;2.80;;;1.60;;
19339;SDS011;9804;52.350;6.684;2023-07-13T12:21:32;3.15;;;1.70;;
19339;SDS011;9804;52.350;6.684;2023-07-13T12:24:00;4.38;;;2.03;;
19339;SDS011;9804;52.350;6.684;2023-07-13T12:26:29;2.90;;;1.48;;
19339;SDS011;9804;52.350;6.684;2023-07-13T12:28:56;5.25;;;2.22;;
19339;SDS011;9804;52.350;6.684;2023-07-13T12:31:25;4.63;;;2.10;;
19339;SDS011;9804;52.350;6.684;2023-07-13T12:33:58;3.97;;;1.83;;
19339;SDS011;9804;52.350;6.684;2023-07-13T12:36:32;5.07;;;1.83;;
19339;SDS011;9804;52.350;6.684;2023-07-13T12:39:00;3.03;;;1.73;;
19339;SDS011;9804;52.350;6.684;2023-07-13T12:41:51;2.17;;;1.48;;
19339;SDS011;9804;52.350;6.684;2023-07-13T12:44:19;4.78;;;1.20;;
19339;SDS011;9804;52.350;6.684;2023-07-13T12:47:13;2.45;;;1.67;;
19339;SDS011;9804;52.350;6.684;2023-07-13T12:49:42;3.17;;;1.70;;
19339;SDS011;9804;52.350;6.684;2023-07-13T12:52:13;4.47;;;2.00;;
19339;SDS011;9804;52.350;6.684;2023-07-13T12:54:42;6.35;;;2.20;;
19339;SDS011;9804;52.350;6.684;2023-07-13T12:57:17;4.88;;;2.03;;
19339;SDS011;9804;52.350;6.684;2023-07-13T12:59:42;8.65;;;3.47;;
19339;SDS011;9804;52.350;6.684;2023-07-13T13:02:21;11.32;;;3.75;;
19339;SDS011;9804;52.350;6.684;2023-07-13T13:04:54;10.38;;;3.95;;
19339;SDS011;9804;52.350;6.684;2023-07-13T13:07:21;7.30;;;3.72;;
19339;SDS011;9804;52.350;6.684;2023-07-13T13:09:46;6.32;;;2.97;;
19339;SDS011;9804;52.350;6.684;2023-07-13T13:12:12;4.53;;;2.65;;
19339;SDS011;9804;52.350;6.684;2023-07-13T13:14:38;4.78;;;2.20;;
19339;SDS011;9804;52.350;6.684;2023-07-13T13:17:04;5.07;;;2.45;;
19339;SDS011;9804;52.350;6.684;2023-07-13T13:19:50;6.22;;;3.17;;
19339;SDS011;9804;52.350;6.684;2023-07-13T13:22:18;5.53;;;3.20;;
19339;SDS011;9804;52.350;6.684;2023-07-13T13:24:44;5.03;;;2.55;;
19339;SDS011;9804;52.350;6.684;2023-07-13T13:27:13;4.30;;;2.42;;
19339;SDS011;9804;52.350;6.684;2023-07-13T13:29:46;6.20;;;2.90;;
19339;SDS011;9804;52.350;6.684;2023-07-13T13:32:12;4.93;;;3.05;;
19339;SDS011;9804;52.350;6.684;2023-07-13T13:34:39;6.45;;;2.50;;
19339;SDS011;9804;52.350;6.684;2023-07-13T13:37:16;6.38;;;2.80;;
19339;SDS011;9804;52.350;6.684;2023-07-13T13:39:43;4.68;;;2.40;;
19339;SDS011;9804;52.350;6.684;2023-07-13T13:42:09;4.47;;;2.63;;
19339;SDS011;9804;52.350;6.684;2023-07-13T13:44:35;5.32;;;2.40;;
19339;SDS011;9804;52.350;6.684;2023-07-13T13:47:01;3.60;;;2.08;;
19339;SDS011;9804;52.350;6.684;2023-07-13T13:49:27;4.25;;;2.10;;
19339;SDS011;9804;52.350;6.684;2023-07-13T13:51:54;3.35;;;2.20;;
19339;SDS011;9804;52.350;6.684;2023-07-13T13:54:21;7.10;;;2.47;;
19339;SDS011;9804;52.350;6.684;2023-07-13T13:56:48;5.13;;;2.63;;
19339;SDS011;9804;52.350;6.684;2023-07-13T13:59:15;5.35;;;3.10;;
19339;SDS011;9804;52.350;6.684;2023-07-13T14:01:41;8.35;;;3.03;;
19339;SDS011;9804;52.350;6.684;2023-07-13T14:04:12;7.47;;;2.97;;
19339;SDS011;9804;52.350;6.684;2023-07-13T14:06:41;6.07;;;3.00;;
19339;SDS011;9804;52.350;6.684;2023-07-13T14:09:08;5.50;;;2.80;;
19339;SDS011;9804;52.350;6.684;2023-07-13T14:11:36;6.22;;;2.95;;
19339;SDS011;9804;52.350;6.684;2023-07-13T14:14:02;11.20;;;3.80;;
19339;SDS011;9804;52.350;6.684;2023-07-13T14:16:30;5.00;;;2.78;;
19339;SDS011;9804;52.350;6.684;2023-07-13T14:18:58;7.07;;;3.10;;
19339;SDS011;9804;52.350;6.684;2023-07-13T14:21:25;8.00;;;3.33;;
19339;SDS011;9804;52.350;6.684;2023-07-13T14:23:52;6.28;;;3.00;;
19339;SDS011;9804;52.350;6.684;2023-07-13T14:26:19;7.93;;;3.45;;
19339;SDS011;9804;52.350;6.684;2023-07-13T14:28:50;5.97;;;3.25;;
19339;SDS011;9804;52.350;6.684;2023-07-13T14:31:18;5.50;;;2.92;;
19339;SDS011;9804;52.350;6.684;2023-07-13T14:33:44;6.78;;;3.55;;
19339;SDS011;9804;52.350;6.684;2023-07-13T14:36:17;6.00;;;3.53;;
19339;SDS011;9804;52.350;6.684;2023-07-13T14:38:46;7.65;;;3.03;;
19339;SDS011;9804;52.350;6.684;2023-07-13T14:41:11;6.38;;;3.00;;
19339;SDS011;9804;52.350;6.684;2023-07-13T14:43:37;6.75;;;3.00;;
19339;SDS011;9804;52.350;6.684;2023-07-13T14:46:02;4.88;;;2.88;;
19339;SDS011;9804;52.350;6.684;2023-07-13T14:48:29;7.85;;;3.15;;
19339;SDS011;9804;52.350;6.684;2023-07-13T14:50:56;5.93;;;3.03;;
19339;SDS011;9804;52.350;6.684;2023-07-13T14:53:22;6.15;;;2.75;;
19339;SDS011;9804;52.350;6.684;2023-07-13T14:55:49;6.88;;;2.83;;
19339;SDS011;9804;52.350;6.684;2023-07-13T14:58:15;4.88;;;2.80;;
19339;SDS011;9804;52.350;6.684;2023-07-13T15:00:41;5.78;;;2.50;;
19339;SDS011;9804;52.350;6.684;2023-07-13T15:03:08;11.10;;;2.78;;
19339;SDS011;9804;52.350;6.684;2023-07-13T15:05:44;5.03;;;3.08;;
19339;SDS011;9804;52.350;6.684;2023-07-13T15:08:10;6.15;;;2.97;;
19339;SDS011;9804;52.350;6.684;2023-07-13T15:10:36;5.47;;;2.78;;
19339;SDS011;9804;52.350;6.684;2023-07-13T15:13:22;7.45;;;2.80;;
19339;SDS011;9804;52.350;6.684;2023-07-13T15:15:51;7.32;;;2.63;;
19339;SDS011;9804;52.350;6.684;2023-07-13T15:18:19;8.02;;;3.25;;
19339;SDS011;9804;52.350;6.684;2023-07-13T15:20:49;10.32;;;2.45;;
19339;SDS011;9804;52.350;6.684;2023-07-13T15:23:17;8.50;;;2.85;;
19339;SDS011;9804;52.350;6.684;2023-07-13T15:25:43;7.43;;;2.50;;
19339;SDS011;9804;52.350;6.684;2023-07-13T15:28:10;6.18;;;2.60;;
19339;SDS011;9804;52.350;6.684;2023-07-13T15:30:46;7.30;;;2.67;;